Time;durP1;ratioP1;P1;durP2;ratioP2;P2;SDS_P1;SDS_P2;PMS_P1;PMS_P2;Temp;Humidity;BMP_temperature;BMP_pressure;BME280_temperature;BME280_humidity;BME280_pressure;Samples;Min_cycle;Max_cycle;Signal;HPM_P1;HPM_P2
2022/11/01 00:01:29;;;;;;;17.70;10.50;;;14.20;99.90;;;;;;5145159;27;20048;-47
2022/11/01 00:03:55;;;;;;;17.80;10.27;;;14.20;99.90;;;;;;5126708;27;20456;-49
2022/11/01 00:06:21;;;;;;;17.83;10.18;;;14.20;99.90;;;;;;5150265;27;20091;-50
2022/11/01 00:08:46;;;;;;;18.90;10.30;;;14.20;99.90;;;;;;5141689;27;20050;-51
2022/11/01 00:11:15;;;;;;;18.27;9.27;;;14.20;99.90;;;;;;5140571;27;20125;-48
2022/11/01 00:13:43;;;;;;;18.35;9.55;;;14.30;99.90;;;;;;5148717;27;20109;-47
2022/11/01 00:16:09;;;;;;;17.02;9.75;;;14.30;99.90;;;;;;5145938;27;20139;-49
2022/11/01 00:18:34;;;;;;;20.13;9.13;;;14.30;99.90;;;;;;5146671;27;20031;-48
2022/11/01 00:21:00;;;;;;;15.68;8.80;;;14.30;99.90;;;;;;5121635;27;20420;-49
2022/11/01 00:23:26;;;;;;;16.42;8.65;;;14.40;99.90;;;;;;5145704;27;20031;-49
2022/11/01 00:25:52;;;;;;;14.48;8.07;;;14.40;99.90;;;;;;5142019;27;20031;-48
2022/11/01 00:28:17;;;;;;;17.58;9.43;;;14.30;99.90;;;;;;5151377;27;20785;-50
2022/11/01 00:30:43;;;;;;;15.32;8.45;;;14.40;99.90;;;;;;5142470;27;20035;-48
2022/11/01 00:33:09;;;;;;;19.20;8.90;;;14.50;99.90;;;;;;5144402;27;20059;-48
2022/11/01 00:35:37;;;;;;;15.48;7.80;;;14.50;99.90;;;;;;5141040;27;20457;-48
2022/11/01 00:38:05;;;;;;;16.50;7.60;;;14.50;99.90;;;;;;5149802;27;20526;-48
2022/11/01 00:40:31;;;;;;;14.40;7.85;;;14.50;99.90;;;;;;5133931;27;20087;-49
2022/11/01 00:42:57;;;;;;;13.15;7.18;;;14.50;99.90;;;;;;5149607;27;20042;-50
2022/11/01 00:45:22;;;;;;;16.92;7.95;;;14.60;99.90;;;;;;5148979;27;20629;-50
2022/11/01 00:47:48;;;;;;;15.27;8.32;;;14.60;99.90;;;;;;5129691;27;20122;-48
2022/11/01 00:50:14;;;;;;;16.80;7.95;;;14.60;99.90;;;;;;5138944;27;20045;-49
2022/11/01 00:52:40;;;;;;;18.30;7.80;;;14.70;99.90;;;;;;5144153;27;20421;-46
2022/11/01 00:55:06;;;;;;;19.65;8.10;;;14.70;99.90;;;;;;5142628;27;20470;-51
2022/11/01 00:57:32;;;;;;;19.25;7.07;;;14.80;99.90;;;;;;5137533;27;20038;-48
2022/11/01 00:59:58;;;;;;;14.85;6.80;;;14.80;99.90;;;;;;5147163;27;20505;-48
2022/11/01 01:02:23;;;;;;;13.38;6.95;;;14.80;99.90;;;;;;5137330;27;20035;-49
2022/11/01 01:04:49;;;;;;;17.00;7.78;;;14.80;99.90;;;;;;5139003;27;20084;-49
2022/11/01 01:07:15;;;;;;;17.08;7.35;;;14.80;99.90;;;;;;5140438;27;20038;-54
2022/11/01 01:09:41;;;;;;;12.13;6.20;;;14.80;99.90;;;;;;5143224;27;20046;-49
2022/11/01 01:12:08;;;;;;;15.32;6.97;;;14.80;99.90;;;;;;5138257;27;20039;-50
2022/11/01 01:14:34;;;;;;;17.05;7.32;;;14.90;99.90;;;;;;5147017;27;20031;-51
2022/11/01 01:17:00;;;;;;;15.23;7.22;;;14.90;99.90;;;;;;5145916;27;20154;-50
2022/11/01 01:19:28;;;;;;;12.18;6.45;;;14.90;99.90;;;;;;5139722;27;20038;-48
2022/11/01 01:21:55;;;;;;;13.68;7.20;;;15.00;99.90;;;;;;5142125;27;20074;-48
2022/11/01 01:24:21;;;;;;;12.15;6.63;;;15.00;99.90;;;;;;5118374;27;20104;-48
2022/11/01 01:26:46;;;;;;;15.45;6.95;;;15.00;99.90;;;;;;5142750;27;20066;-47
2022/11/01 01:29:12;;;;;;;13.32;6.97;;;15.00;99.90;;;;;;5142698;27;20079;-49
2022/11/01 01:31:38;;;;;;;17.30;7.10;;;15.10;99.90;;;;;;5140796;27;20042;-48
2022/11/01 01:34:04;;;;;;;14.35;6.47;;;15.00;99.90;;;;;;5137107;27;20031;-47
2022/11/01 01:36:29;;;;;;;12.45;7.00;;;15.00;99.90;;;;;;5140129;27;20103;-50
2022/11/01 01:38:55;;;;;;;14.00;6.45;;;15.00;99.90;;;;;;5141600;27;20035;-51
2022/11/01 01:44:42;;;;;;;12.57;6.70;;;15.10;99.90;;;;;;5149929;27;20043;-47
2022/11/01 01:47:17;;;;;;;13.77;6.47;;;15.00;99.90;;;;;;5136256;27;20030;-47
2022/11/01 01:49:44;;;;;;;13.43;6.30;;;15.00;99.90;;;;;;5148893;27;20389;-48
2022/11/01 01:52:10;;;;;;;13.50;7.05;;;15.00;99.90;;;;;;5142772;27;20067;-48
2022/11/01 01:54:36;;;;;;;14.70;7.25;;;15.00;99.90;;;;;;5146237;27;20062;-51
2022/11/01 01:57:03;;;;;;;13.43;6.70;;;15.00;99.90;;;;;;5143660;27;20050;-50
2022/11/01 01:59:31;;;;;;;10.60;6.60;;;15.00;99.90;;;;;;5145840;27;20068;-47
2022/11/01 02:01:57;;;;;;;13.27;6.68;;;14.90;99.90;;;;;;5139246;27;20058;-47
2022/11/01 02:04:40;;;;;;;12.85;6.78;;;15.00;99.90;;;;;;5139867;27;20065;-48
2022/11/01 02:07:07;;;;;;;12.20;6.55;;;14.90;99.90;;;;;;5139452;27;20120;-48
2022/11/01 02:09:35;;;;;;;12.82;6.50;;;15.00;99.90;;;;;;5145309;27;20035;-47
2022/11/01 02:12:02;;;;;;;13.82;7.00;;;14.90;99.90;;;;;;5143653;27;20027;-51
2022/11/01 02:14:28;;;;;;;14.38;7.40;;;15.00;99.90;;;;;;5135535;27;20478;-48
2022/11/01 02:17:07;;;;;;;14.10;7.13;;;14.90;99.90;;;;;;5126778;27;20501;-52
2022/11/01 02:19:50;;;;;;;13.20;7.28;;;14.90;99.90;;;;;;5147210;27;20039;-46
2022/11/01 02:22:33;;;;;;;14.77;7.40;;;14.80;99.90;;;;;;5138598;27;20042;-53
2022/11/01 02:25:09;;;;;;;14.05;7.57;;;14.90;99.90;;;;;;5137927;27;20079;-49
2022/11/01 02:27:53;;;;;;;13.65;7.28;;;14.80;99.90;;;;;;5141875;27;20887;-48
2022/11/01 02:30:21;;;;;;;15.90;7.53;;;14.80;99.90;;;;;;5139566;27;20054;-49
2022/11/01 02:33:16;;;;;;;13.73;7.63;;;14.80;99.90;;;;;;5142078;27;20118;-48
2022/11/01 02:35:44;;;;;;;12.38;7.40;;;14.80;99.90;;;;;;5139992;27;20085;-47
2022/11/01 02:38:28;;;;;;;13.68;7.20;;;14.80;99.90;;;;;;5147865;27;20043;-48
2022/11/01 02:41:33;;;;;;;15.45;7.35;;;14.80;99.90;;;;;;5133239;27;20043;-50
2022/11/01 02:44:03;;;;;;;12.90;7.20;;;14.80;99.90;;;;;;5132355;27;20047;-53
2022/11/01 02:49:23;;;;;;;12.88;6.60;;;14.90;99.90;;;;;;5130337;27;20068;-47
2022/11/01 02:51:51;;;;;;;15.68;6.90;;;15.00;99.90;;;;;;5139017;27;20047;-49
2022/11/01 02:54:31;;;;;;;12.70;6.78;;;15.00;99.90;;;;;;5138990;27;20070;-51
2022/11/01 02:57:02;;;;;;;16.73;6.70;;;15.10;99.90;;;;;;5132514;27;20047;-51
2022/11/01 02:59:28;;;;;;;12.43;6.45;;;15.10;99.90;;;;;;5135968;27;20034;-51
2022/11/01 03:02:06;;;;;;;13.35;6.28;;;15.10;99.90;;;;;;5143796;27;20042;-46
2022/11/01 03:04:33;;;;;;;12.57;6.25;;;15.20;99.90;;;;;;5138399;27;20046;-49
2022/11/01 03:07:03;;;;;;;11.85;6.82;;;15.30;99.90;;;;;;5122323;27;20493;-51
2022/11/01 03:09:31;;;;;;;12.25;6.43;;;15.20;99.90;;;;;;5135213;27;20110;-51
2022/11/01 03:12:07;;;;;;;12.30;6.63;;;15.30;99.90;;;;;;5143096;27;20131;-48
2022/11/01 03:14:43;;;;;;;14.23;6.93;;;15.30;99.90;;;;;;5137030;27;20035;-49
2022/11/01 03:17:25;;;;;;;10.27;6.68;;;15.30;99.90;;;;;;5132933;27;20039;-48
2022/11/01 03:19:59;;;;;;;11.23;6.50;;;15.30;99.90;;;;;;5135467;27;20095;-52
2022/11/01 03:22:30;;;;;;;13.77;6.53;;;15.20;99.90;;;;;;5134563;27;20663;-48
2022/11/01 03:25:05;;;;;;;9.68;6.28;;;15.20;99.90;;;;;;5142840;27;20541;-50
2022/11/01 03:27:36;;;;;;;10.90;6.93;;;15.30;99.90;;;;;;5134264;27;20058;-50
2022/11/01 03:30:08;;;;;;;10.95;6.38;;;15.30;99.90;;;;;;5142460;27;20770;-49
2022/11/01 03:32:48;;;;;;;13.05;6.30;;;15.40;99.90;;;;;;5130530;27;20035;-51
2022/11/01 03:35:18;;;;;;;11.45;6.15;;;15.40;99.90;;;;;;5133174;27;20113;-49
2022/11/01 03:37:46;;;;;;;11.80;6.13;;;15.40;99.90;;;;;;5141145;27;20039;-51
2022/11/01 03:40:15;;;;;;;11.30;6.35;;;15.50;99.90;;;;;;5137185;27;20043;-51
2022/11/01 03:42:45;;;;;;;12.43;6.03;;;15.40;99.90;;;;;;5146025;27;20039;-53
2022/11/01 03:45:13;;;;;;;12.75;6.50;;;15.50;99.90;;;;;;5148179;27;20049;-50
2022/11/01 03:47:39;;;;;;;11.20;6.50;;;15.50;99.90;;;;;;5141590;27;20044;-51
2022/11/01 03:50:12;;;;;;;11.68;6.80;;;15.50;99.90;;;;;;5134444;27;20030;-49
2022/11/01 03:52:38;;;;;;;12.43;6.93;;;15.50;99.90;;;;;;5134209;27;20570;-47
2022/11/01 03:55:16;;;;;;;13.60;6.35;;;15.50;99.90;;;;;;5144346;27;20071;-48
2022/11/01 03:57:56;;;;;;;11.32;5.70;;;15.50;99.90;;;;;;5137828;27;20113;-48
2022/11/01 04:00:30;;;;;;;14.57;6.57;;;15.50;99.90;;;;;;5136589;27;20043;-48
2022/11/01 04:02:57;;;;;;;11.85;6.32;;;15.40;99.90;;;;;;5134858;27;20440;-52
2022/11/01 04:05:25;;;;;;;12.10;6.38;;;15.40;99.90;;;;;;5136258;27;20042;-50
2022/11/01 04:07:51;;;;;;;10.23;5.90;;;15.40;99.90;;;;;;5137591;27;20104;-50
2022/11/01 04:10:18;;;;;;;11.23;6.18;;;15.30;99.90;;;;;;5140868;27;20067;-49
2022/11/01 04:12:45;;;;;;;13.68;6.68;;;15.40;99.90;;;;;;5137481;27;20035;-48
2022/11/01 04:20:51;;;;;;;11.55;6.35;;;15.20;99.90;;;;;;5153242;27;20047;-51
2022/11/01 04:23:17;;;;;;;14.82;6.15;;;15.20;99.90;;;;;;5149415;27;20038;-51
2022/11/01 04:25:45;;;;;;;13.15;6.70;;;15.30;99.90;;;;;;5144906;27;20436;-50
2022/11/01 04:28:11;;;;;;;15.63;6.50;;;15.30;99.90;;;;;;5144104;27;20453;-47
2022/11/01 04:30:37;;;;;;;10.20;6.53;;;15.20;99.90;;;;;;5117888;27;20054;-49
2022/11/01 04:33:02;;;;;;;14.45;6.55;;;15.30;99.90;;;;;;5124104;27;20128;-49
2022/11/01 04:35:28;;;;;;;12.43;5.70;;;15.30;99.90;;;;;;5124216;27;20388;-49
2022/11/01 04:37:57;;;;;;;16.98;6.25;;;15.30;99.90;;;;;;5123846;27;20047;-52
2022/11/01 04:40:24;;;;;;;13.77;6.47;;;15.40;99.90;;;;;;5119179;27;20479;-47
2022/11/01 04:42:51;;;;;;;14.20;6.05;;;15.40;99.90;;;;;;5112015;28;20383;-47
2022/11/01 04:45:18;;;;;;;11.40;6.00;;;15.50;99.90;;;;;;5121756;27;20507;-51
2022/11/01 04:47:50;;;;;;;13.45;6.65;;;15.50;99.90;;;;;;5116452;27;20046;-46
2022/11/01 04:50:19;;;;;;;14.63;6.20;;;15.50;99.90;;;;;;5111221;28;20035;-50
2022/11/01 04:52:46;;;;;;;12.60;6.10;;;15.40;99.90;;;;;;5117429;27;20039;-48
2022/11/01 04:55:12;;;;;;;12.30;6.63;;;15.40;99.90;;;;;;5118217;27;20065;-49
2022/11/01 04:57:41;;;;;;;13.75;6.22;;;15.40;99.90;;;;;;5114037;27;20057;-47
2022/11/01 05:00:10;;;;;;;14.68;6.13;;;15.30;99.90;;;;;;5117343;27;20092;-50
2022/11/01 05:02:36;;;;;;;12.18;6.05;;;15.40;99.90;;;;;;5121778;27;20047;-52
2022/11/01 05:05:06;;;;;;;14.98;6.85;;;15.20;99.90;;;;;;5117761;27;20040;-47
2022/11/01 05:07:33;;;;;;;11.23;6.47;;;15.30;99.90;;;;;;5121704;27;20073;-49
2022/11/01 05:09:58;;;;;;;9.50;5.20;;;15.30;99.90;;;;;;5128266;27;20385;-48
2022/11/01 05:12:24;;;;;;;9.07;5.07;;;15.30;99.90;;;;;;5130558;27;20036;-48
2022/11/01 05:14:49;;;;;;;8.05;3.92;;;15.30;99.90;;;;;;5122559;27;20031;-47
2022/11/01 05:17:15;;;;;;;6.15;2.35;;;15.30;99.90;;;;;;5120229;27;20047;-52
2022/11/01 05:19:41;;;;;;;6.32;1.90;;;15.20;99.90;;;;;;5123788;27;20039;-48
2022/11/01 05:22:06;;;;;;;5.70;1.58;;;15.30;99.90;;;;;;5124164;27;20078;-50
2022/11/01 05:24:32;;;;;;;4.32;1.50;;;15.20;99.90;;;;;;5117425;27;20043;-50
2022/11/01 05:26:59;;;;;;;4.75;1.27;;;15.10;99.90;;;;;;5115995;27;20482;-50
2022/11/01 05:29:26;;;;;;;6.72;1.67;;;15.00;99.90;;;;;;5110726;27;20094;-53
2022/11/01 05:31:52;;;;;;;6.50;1.40;;;14.90;99.90;;;;;;5122553;27;20538;-50
2022/11/01 05:34:18;;;;;;;4.80;1.33;;;14.80;99.90;;;;;;5115474;27;20063;-48
2022/11/01 05:36:44;;;;;;;6.05;1.45;;;14.70;99.90;;;;;;5121262;27;20126;-49
2022/11/01 05:39:09;;;;;;;6.43;1.17;;;14.60;99.90;;;;;;5119150;27;20395;-47
2022/11/01 05:41:35;;;;;;;4.57;1.10;;;14.40;99.90;;;;;;5122853;27;20039;-48
2022/11/01 05:44:01;;;;;;;5.75;1.25;;;14.40;99.90;;;;;;5116789;27;20040;-48
2022/11/01 05:46:26;;;;;;;6.57;1.48;;;14.40;99.90;;;;;;5119548;27;20055;-47
2022/11/01 05:48:52;;;;;;;6.93;1.13;;;14.30;99.90;;;;;;5106025;27;20031;-47
2022/11/01 05:51:18;;;;;;;4.70;1.27;;;14.30;99.90;;;;;;5115059;27;20043;-51
2022/11/01 05:53:43;;;;;;;4.40;1.17;;;14.30;99.90;;;;;;5125079;27;20111;-53
2022/11/01 05:56:09;;;;;;;8.82;1.10;;;14.30;99.90;;;;;;5117422;27;20180;-53
2022/11/01 05:58:35;;;;;;;6.07;1.05;;;14.20;99.90;;;;;;5110229;27;20114;-49
2022/11/01 06:01:04;;;;;;;6.30;1.00;;;14.20;99.90;;;;;;5119399;27;20035;-54
2022/11/01 06:03:30;;;;;;;12.27;1.20;;;14.20;99.90;;;;;;5121821;27;20122;-49
2022/11/01 06:05:56;;;;;;;6.88;1.13;;;14.20;99.90;;;;;;5127341;27;20064;-48
2022/11/01 06:08:22;;;;;;;6.57;1.33;;;14.20;99.90;;;;;;5120287;27;20039;-51
2022/11/01 06:10:48;;;;;;;5.82;1.20;;;14.10;99.90;;;;;;5121599;27;20527;-53
2022/11/01 06:13:14;;;;;;;5.15;1.13;;;14.10;99.90;;;;;;5125139;27;20035;-50
2022/11/01 06:15:40;;;;;;;4.15;1.00;;;14.10;99.90;;;;;;5115279;27;20058;-51
2022/11/01 06:18:06;;;;;;;6.75;1.10;;;14.00;99.90;;;;;;5118791;27;20067;-52
2022/11/01 06:20:32;;;;;;;4.35;1.00;;;14.00;99.90;;;;;;5112310;27;20084;-53
2022/11/01 06:22:59;;;;;;;6.18;1.08;;;14.00;99.90;;;;;;5113014;27;20054;-50
2022/11/01 06:25:26;;;;;;;4.90;0.90;;;13.90;99.90;;;;;;5109851;28;20042;-48
2022/11/01 06:27:53;;;;;;;4.55;1.00;;;13.90;99.90;;;;;;5114557;27;20391;-50
2022/11/01 06:30:19;;;;;;;6.75;1.20;;;13.90;99.90;;;;;;5107010;28;20070;-50
2022/11/01 06:32:45;;;;;;;4.75;1.25;;;13.90;99.90;;;;;;5109674;28;20118;-51
2022/11/01 06:35:11;;;;;;;5.65;1.35;;;13.80;99.90;;;;;;5115633;27;20122;-50
2022/11/01 06:37:40;;;;;;;9.02;1.63;;;13.90;99.90;;;;;;5117802;27;20551;-51
2022/11/01 06:40:06;;;;;;;8.63;1.90;;;13.90;99.90;;;;;;5113935;27;20490;-49
2022/11/01 06:42:32;;;;;;;7.93;1.80;;;13.80;99.90;;;;;;5111777;27;20058;-51
2022/11/01 06:44:58;;;;;;;7.80;1.40;;;13.90;99.90;;;;;;5124002;27;20035;-50
2022/11/01 06:47:23;;;;;;;9.73;1.65;;;13.90;99.90;;;;;;5123337;27;20039;-49
2022/11/01 06:49:49;;;;;;;6.32;1.50;;;13.90;99.90;;;;;;5129419;27;20366;-50
2022/11/01 06:52:14;;;;;;;8.50;1.50;;;13.90;99.90;;;;;;5131626;27;20362;-46
2022/11/01 06:54:40;;;;;;;7.97;1.83;;;13.90;99.90;;;;;;5127955;27;20071;-50
2022/11/01 06:57:06;;;;;;;8.82;1.70;;;13.90;99.90;;;;;;5124765;27;20043;-49
2022/11/01 06:59:31;;;;;;;6.63;1.55;;;13.90;99.90;;;;;;5120718;27;20035;-48
2022/11/01 07:01:57;;;;;;;5.85;1.33;;;13.90;99.90;;;;;;5111412;28;20040;-48
2022/11/01 07:04:22;;;;;;;9.40;1.48;;;13.90;99.90;;;;;;5127782;27;20088;-49
2022/11/01 07:06:48;;;;;;;4.45;1.13;;;13.90;99.90;;;;;;5120230;28;20039;-48
2022/11/01 07:09:14;;;;;;;6.15;1.45;;;13.90;99.90;;;;;;5130596;28;21758;-48
2022/11/01 07:11:40;;;;;;;7.10;1.30;;;13.80;99.90;;;;;;5112339;28;20035;-49
2022/11/01 07:14:05;;;;;;;7.00;1.20;;;13.90;99.90;;;;;;5107095;28;20119;-47
2022/11/01 07:16:31;;;;;;;7.78;1.30;;;13.90;99.90;;;;;;5103937;28;20054;-50
2022/11/01 07:18:57;;;;;;;6.82;0.90;;;13.80;99.90;;;;;;5101454;28;20039;-53
2022/11/01 07:21:23;;;;;;;7.35;1.33;;;13.80;99.90;;;;;;5103171;28;20036;-52
2022/11/01 07:23:51;;;;;;;6.47;1.40;;;13.80;99.90;;;;;;5102809;28;20118;-53
2022/11/01 07:26:17;;;;;;;8.20;1.80;;;13.90;99.90;;;;;;5101345;28;20070;-51
2022/11/01 07:28:42;;;;;;;6.60;1.65;;;13.90;99.90;;;;;;5104722;27;20043;-47
2022/11/01 07:31:08;;;;;;;7.03;1.80;;;13.90;99.90;;;;;;5122310;27;20055;-50
2022/11/01 07:33:34;;;;;;;10.80;1.70;;;13.90;99.90;;;;;;5122465;27;20035;-49
2022/11/01 07:36:01;;;;;;;9.40;1.80;;;13.90;99.90;;;;;;5122724;27;20096;-50
2022/11/01 07:38:26;;;;;;;9.10;1.70;;;13.80;99.90;;;;;;5123698;27;20046;-51
2022/11/01 07:40:53;;;;;;;10.35;1.73;;;13.90;99.90;;;;;;5123865;27;20031;-49
2022/11/01 07:43:20;;;;;;;11.70;2.10;;;13.90;99.90;;;;;;5122875;27;20054;-52
2022/11/01 07:45:46;;;;;;;8.70;1.92;;;13.90;99.90;;;;;;5122481;27;20083;-52
2022/11/01 07:48:14;;;;;;;11.13;2.22;;;13.90;99.90;;;;;;5123827;27;20470;-49
2022/11/01 07:50:41;;;;;;;13.10;2.63;;;14.00;99.90;;;;;;5122957;27;20043;-50
2022/11/01 07:53:12;;;;;;;11.70;2.28;;;14.10;99.90;;;;;;5126411;27;20071;-49
2022/11/01 07:55:39;;;;;;;16.17;2.78;;;14.10;99.90;;;;;;5125675;27;20031;-48
2022/11/01 07:58:05;;;;;;;15.95;2.53;;;14.20;99.90;;;;;;5124680;27;20099;-50
2022/11/01 08:00:31;;;;;;;13.73;2.30;;;14.20;99.90;;;;;;5125481;27;20031;-52
2022/11/01 08:03:05;;;;;;;12.93;2.72;;;14.30;99.90;;;;;;5126167;27;20368;-48
2022/11/01 08:05:31;;;;;;;13.38;2.60;;;14.30;99.90;;;;;;5120110;27;20034;-51
2022/11/01 08:07:58;;;;;;;12.30;2.47;;;14.40;99.90;;;;;;5122914;27;20040;-50
2022/11/01 08:10:24;;;;;;;12.18;2.70;;;14.40;99.90;;;;;;5118448;27;20415;-52
2022/11/01 08:12:49;;;;;;;12.07;2.80;;;14.40;99.90;;;;;;5121801;27;20067;-49
2022/11/01 08:15:15;;;;;;;16.10;2.75;;;14.40;99.90;;;;;;5124899;27;20042;-52
2022/11/01 08:17:41;;;;;;;13.50;3.38;;;14.40;99.90;;;;;;5119266;27;20514;-50
2022/11/01 08:20:07;;;;;;;14.25;2.88;;;14.40;99.90;;;;;;5104118;27;20046;-49
2022/11/01 08:22:36;;;;;;;13.48;2.53;;;14.60;99.90;;;;;;5126350;27;20031;-49
2022/11/01 08:25:02;;;;;;;9.45;2.70;;;14.60;99.90;;;;;;5118485;27;20053;-49
2022/11/01 08:27:28;;;;;;;14.00;2.67;;;14.60;99.90;;;;;;5114851;27;20019;-50
2022/11/01 08:29:53;;;;;;;11.95;2.50;;;14.50;99.90;;;;;;5126264;27;20064;-50
2022/11/01 08:32:20;;;;;;;12.68;2.88;;;14.50;99.90;;;;;;5123802;27;20031;-50
2022/11/01 08:34:46;;;;;;;15.27;2.97;;;14.40;99.90;;;;;;5123389;27;20027;-50
2022/11/01 08:37:12;;;;;;;14.23;3.03;;;14.40;99.90;;;;;;5125382;27;20072;-50
2022/11/01 08:39:38;;;;;;;16.67;3.30;;;14.40;99.90;;;;;;5105341;27;20043;-49
2022/11/01 08:42:04;;;;;;;13.30;2.72;;;14.40;99.90;;;;;;5104210;27;20368;-50
2022/11/01 08:44:31;;;;;;;14.02;2.55;;;14.40;99.90;;;;;;5124586;27;20043;-49
2022/11/01 08:47:00;;;;;;;14.80;2.88;;;14.40;99.90;;;;;;5106368;27;20052;-51
2022/11/01 08:49:26;;;;;;;14.80;3.05;;;14.40;99.90;;;;;;5103031;27;20075;-51
2022/11/01 08:51:52;;;;;;;13.00;3.08;;;14.40;99.90;;;;;;5121013;27;20023;-49
2022/11/01 08:54:17;;;;;;;14.65;2.70;;;14.50;99.90;;;;;;5124538;27;20122;-50
2022/11/01 08:56:43;;;;;;;15.65;3.20;;;14.50;99.90;;;;;;5124413;27;20067;-52
2022/11/01 08:59:09;;;;;;;16.98;3.05;;;14.50;99.90;;;;;;5125069;27;20015;-49
2022/11/01 09:01:35;;;;;;;17.77;2.97;;;14.60;99.90;;;;;;5124637;27;20077;-52
2022/11/01 09:04:01;;;;;;;16.20;3.50;;;14.60;99.90;;;;;;5124212;27;20393;-50
2022/11/01 09:06:27;;;;;;;13.35;3.10;;;14.70;99.90;;;;;;5132182;27;20042;-49
2022/11/01 09:08:54;;;;;;;15.90;3.05;;;14.70;99.90;;;;;;5137108;27;20071;-46
2022/11/01 09:11:21;;;;;;;13.25;2.55;;;14.80;99.90;;;;;;5099321;27;20049;-51
2022/11/01 09:13:48;;;;;;;15.38;2.90;;;14.80;99.90;;;;;;5099260;27;20039;-50
2022/11/01 09:16:14;;;;;;;16.40;3.42;;;14.80;99.90;;;;;;5137509;27;20051;-50
2022/11/01 09:18:40;;;;;;;13.38;2.78;;;14.80;99.90;;;;;;5140065;27;20485;-53
2022/11/01 09:21:06;;;;;;;10.98;2.53;;;14.90;99.90;;;;;;5146902;27;20054;-50
2022/11/01 09:23:34;;;;;;;13.15;2.67;;;14.90;99.90;;;;;;5148703;27;20532;-49
2022/11/01 09:26:04;;;;;;;13.27;2.78;;;14.90;99.90;;;;;;5143107;27;20469;-51
2022/11/01 09:28:30;;;;;;;16.48;3.10;;;15.00;99.90;;;;;;5145916;27;20059;-54
2022/11/01 09:30:56;;;;;;;16.77;3.92;;;15.10;99.90;;;;;;5138058;27;20051;-49
2022/11/01 09:33:22;;;;;;;11.73;2.70;;;14.90;99.90;;;;;;5140864;27;20354;-50
2022/11/01 09:35:52;;;;;;;13.52;2.63;;;15.10;99.90;;;;;;5148139;27;20106;-49
2022/11/01 09:38:18;;;;;;;13.82;2.78;;;15.10;99.90;;;;;;5140917;27;20050;-48
2022/11/01 09:40:45;;;;;;;13.25;2.88;;;15.10;99.90;;;;;;5139394;27;20031;-48
2022/11/01 09:43:22;;;;;;;12.38;2.17;;;15.20;99.90;;;;;;5135265;27;20043;-48
2022/11/01 09:45:51;;;;;;;15.95;2.83;;;15.20;99.90;;;;;;5133080;27;20039;-50
2022/11/01 09:48:17;;;;;;;14.10;3.13;;;15.20;99.90;;;;;;5144946;27;20404;-49
2022/11/01 09:50:44;;;;;;;17.02;3.00;;;15.20;99.90;;;;;;5127316;27;20043;-52
2022/11/01 09:53:28;;;;;;;14.63;2.40;;;15.20;99.90;;;;;;5126119;27;20131;-50
2022/11/01 09:55:54;;;;;;;;;;;15.20;99.90;;;;;;5144088;27;20041;-49
2022/11/01 09:58:57;;;;;;;16.20;2.72;;;15.20;99.90;;;;;;5141048;27;20002;-49
2022/11/01 10:01:37;;;;;;;12.73;3.05;;;15.40;99.90;;;;;;5152078;27;20039;-50
2022/11/01 10:04:28;;;;;;;17.55;3.05;;;15.40;99.90;;;;;;5144187;27;20096;-50
2022/11/01 10:07:19;;;;;;;14.65;3.03;;;15.40;99.90;;;;;;5139610;27;20409;-52
2022/11/01 10:09:56;;;;;;;13.88;2.88;;;15.50;99.90;;;;;;5151422;27;20043;-48
2022/11/01 10:12:43;;;;;;;13.45;2.60;;;15.50;99.90;;;;;;5141777;27;20034;-46
2022/11/01 10:15:09;;;;;;;14.45;2.80;;;15.50;99.90;;;;;;5144313;27;20094;-49
2022/11/01 10:17:43;;;;;;;17.02;3.42;;;15.60;99.90;;;;;;5148426;27;20039;-52
2022/11/01 10:20:12;;;;;;;8.75;2.20;;;15.80;99.90;;;;;;5141832;27;20118;-52
2022/11/01 10:22:41;;;;;;;11.85;2.28;;;15.80;99.90;;;;;;5134810;27;20062;-51
2022/11/01 10:25:24;;;;;;;15.18;2.92;;;15.70;99.90;;;;;;5144895;27;20066;-52
2022/11/01 10:27:56;;;;;;;10.45;2.42;;;15.70;99.90;;;;;;5141512;27;20121;-48
2022/11/01 10:30:22;;;;;;;14.25;2.88;;;15.60;99.90;;;;;;5139313;27;20078;-51
2022/11/01 10:33:12;;;;;;;14.77;3.05;;;15.70;99.90;;;;;;5140770;27;20066;-48
2022/11/01 10:35:45;;;;;;;14.93;2.90;;;15.80;99.90;;;;;;5140932;27;20042;-51
2022/11/01 10:38:35;;;;;;;12.00;2.45;;;15.70;99.90;;;;;;5135127;27;20508;-48
2022/11/01 10:41:24;;;;;;;15.73;2.85;;;15.80;99.90;;;;;;5144340;27;20092;-50
2022/11/01 10:43:56;;;;;;;13.88;3.05;;;16.00;99.90;;;;;;5142643;27;20048;-49
2022/11/01 10:46:30;;;;;;;10.07;2.70;;;16.00;99.90;;;;;;5139690;27;20046;-50
2022/11/01 10:49:00;;;;;;;14.95;2.88;;;16.00;99.90;;;;;;5116081;27;20118;-47
2022/11/01 10:51:30;;;;;;;15.18;2.88;;;16.10;99.90;;;;;;5148520;27;20031;-48
2022/11/01 10:54:09;;;;;;;13.25;2.65;;;16.10;99.90;;;;;;5133444;27;20115;-52
2022/11/01 10:56:43;;;;;;;14.00;2.65;;;16.10;99.90;;;;;;5125075;27;20126;-48
2022/11/01 10:59:17;;;;;;;18.63;2.80;;;16.30;99.90;;;;;;5140543;27;20087;-49
2022/11/01 11:01:43;;;;;;;;;;;16.30;99.90;;;;;;5136781;27;20038;-47
2022/11/01 11:04:17;;;;;;;14.75;2.53;;;16.50;99.90;;;;;;5135055;27;19921;-50
2022/11/01 11:06:43;;;;;;;13.23;2.58;;;16.50;99.90;;;;;;5144440;27;20031;-50
2022/11/01 11:09:31;;;;;;;11.68;2.65;;;16.70;99.90;;;;;;5142076;27;20381;-51
2022/11/01 11:12:17;;;;;;;17.75;2.67;;;16.90;99.90;;;;;;5137890;27;20041;-52
2022/11/01 11:14:46;;;;;;;13.98;2.53;;;17.20;99.90;;;;;;5104820;27;20075;-51
2022/11/01 11:17:49;;;;;;;13.80;3.05;;;17.20;99.90;;;;;;5134726;27;20038;-49
2022/11/01 11:20:22;;;;;;;11.77;2.40;;;17.40;99.90;;;;;;5104581;27;20080;-51
2022/11/01 11:22:48;;;;;;;8.90;2.25;;;17.60;99.90;;;;;;5139228;27;20058;-49
2022/11/01 11:25:21;;;;;;;14.65;2.30;;;17.80;99.90;;;;;;5127689;27;20043;-47
2022/11/01 11:27:51;;;;;;;11.98;2.30;;;17.80;99.90;;;;;;5139161;27;20081;-47
2022/11/01 11:30:33;;;;;;;12.48;2.40;;;17.80;99.90;;;;;;5138795;27;20104;-50
2022/11/01 11:33:00;;;;;;;10.93;2.28;;;17.90;99.90;;;;;;5148312;27;20405;-50
2022/11/01 11:35:31;;;;;;;11.18;2.22;;;17.90;99.90;;;;;;5146516;27;20050;-49
2022/11/01 11:38:03;;;;;;;11.65;2.60;;;18.20;99.90;;;;;;5112108;27;20389;-48
2022/11/01 11:40:43;;;;;;;12.50;2.28;;;18.10;99.90;;;;;;5152496;27;20056;-51
2022/11/01 11:43:30;;;;;;;12.98;2.10;;;18.30;99.90;;;;;;5140907;27;20057;-50
2022/11/01 11:46:23;;;;;;;7.68;1.92;;;18.40;99.90;;;;;;5148234;27;20439;-47
2022/11/01 11:48:59;;;;;;;10.43;2.40;;;18.40;99.90;;;;;;5126211;27;20050;-52
2022/11/01 11:51:28;;;;;;;8.98;2.17;;;18.40;99.90;;;;;;5138088;27;20039;-48
2022/11/01 11:54:20;;;;;;;9.23;2.05;;;18.40;99.90;;;;;;5140984;27;20474;-50
2022/11/01 11:56:49;;;;;;;10.82;2.35;;;18.50;99.90;;;;;;5141525;27;20122;-50
2022/11/01 11:59:26;;;;;;;13.23;2.20;;;18.50;99.90;;;;;;5145091;27;20084;-48
2022/11/01 12:02:04;;;;;;;9.90;2.20;;;18.50;99.90;;;;;;5140923;27;20083;-47
2022/11/01 12:04:44;;;;;;;12.02;2.20;;;18.50;99.90;;;;;;5144589;27;20039;-47
2022/11/01 12:07:25;;;;;;;12.10;2.17;;;18.50;99.90;;;;;;5140506;27;20035;-49
2022/11/01 12:09:51;;;;;;;10.43;1.85;;;18.30;99.90;;;;;;5142859;27;20031;-48
2022/11/01 12:12:34;;;;;;;11.45;1.95;;;18.30;99.90;;;;;;5143203;27;20626;-50
2022/11/01 12:15:02;;;;;;;8.77;1.98;;;18.50;99.90;;;;;;5141919;27;20077;-52
2022/11/01 12:17:35;;;;;;;9.55;2.20;;;18.60;99.90;;;;;;5138204;27;20034;-51
2022/11/01 12:20:06;;;;;;;9.23;2.00;;;18.60;99.90;;;;;;5146151;27;20438;-49
2022/11/01 12:22:33;;;;;;;11.32;2.25;;;18.60;99.90;;;;;;5141766;27;20106;-49
2022/11/01 12:25:07;;;;;;;8.77;2.03;;;18.70;99.90;;;;;;5151490;27;20038;-50
2022/11/01 12:27:34;;;;;;;11.57;2.35;;;18.80;99.90;;;;;;5144829;27;20056;-50
2022/11/01 12:30:04;;;;;;;11.40;2.13;;;18.50;99.90;;;;;;5147374;27;20083;-47
2022/11/01 12:32:48;;;;;;;10.55;1.88;;;18.60;99.90;;;;;;5149223;27;20117;-48
2022/11/01 12:35:18;;;;;;;;;;;18.70;99.90;;;;;;5146506;27;20353;-49
2022/11/01 12:37:48;;;;;;;9.70;2.08;;;18.80;99.90;;;;;;5139156;27;19994;-50
2022/11/01 12:40:32;;;;;;;11.82;2.55;;;18.90;99.90;;;;;;5126921;27;20490;-50
2022/11/01 12:43:02;;;;;;;8.98;1.98;;;19.10;99.90;;;;;;5146842;27;20473;-48
2022/11/01 12:45:40;;;;;;;8.93;1.90;;;19.10;99.90;;;;;;5147177;27;20039;-50
2022/11/01 12:48:11;;;;;;;8.70;1.92;;;19.20;99.90;;;;;;5141950;27;20039;-52
2022/11/01 12:50:54;;;;;;;8.93;1.98;;;19.30;99.90;;;;;;5140590;27;20118;-49
2022/11/01 12:53:43;;;;;;;9.40;1.67;;;19.20;99.90;;;;;;5138219;27;20668;-47
2022/11/01 12:56:10;;;;;;;10.07;1.95;;;19.20;99.90;;;;;;5139189;27;20257;-46
2022/11/01 12:58:37;;;;;;;10.57;1.67;;;19.10;99.90;;;;;;5140876;27;20091;-51
2022/11/01 13:01:19;;;;;;;8.50;1.90;;;19.10;99.90;;;;;;5143773;27;20433;-47
2022/11/01 13:04:22;;;;;;;9.32;1.90;;;19.10;99.90;;;;;;5145722;27;20458;-47
2022/11/01 13:06:57;;;;;;;8.70;1.67;;;19.30;99.90;;;;;;5139490;27;20071;-47